Time;durP1;ratioP1;P1;durP2;ratioP2;P2;SDS_P1;SDS_P2;PMS_P1;PMS_P2;Temp;Humidity;BMP_temperature;BMP_pressure;BME280_temperature;BME280_humidity;BME280_pressure;Samples;Min_cycle;Max_cycle;Signal;HPM_P1;HPM_P2
2023/06/08 00:00:13;;;;;;;10.45;4.45;;;22.40;78.30;;;;;;5041202;28;20037;-61
2023/06/08 00:02:39;;;;;;;8.13;3.75;;;22.40;75.10;;;;;;5052478;28;20052;-63
2023/06/08 00:05:07;;;;;;;11.13;3.63;;;22.30;78.50;;;;;;5053501;28;20080;-63
2023/06/08 00:07:34;;;;;;;7.38;3.53;;;22.20;78.10;;;;;;5051049;28;20123;-62
2023/06/08 00:10:00;;;;;;;9.38;3.78;;;22.10;75.10;;;;;;5033198;28;20103;-61
2023/06/08 00:12:27;;;;;;;9.00;3.88;;;22.40;78.20;;;;;;5033395;28;20055;-61
2023/06/08 00:14:53;;;;;;;10.77;3.75;;;22.30;78.30;;;;;;5032899;28;20065;-61
2023/06/08 00:17:18;;;;;;;7.95;3.65;;;22.40;78.40;;;;;;5036924;28;20050;-62
2023/06/08 00:19:45;;;;;;;7.68;3.60;;;22.40;78.40;;;;;;5036753;28;20081;-65
2023/06/08 00:22:13;;;;;;;9.05;3.90;;;22.30;75.20;;;;;;5033287;28;20045;-62
2023/06/08 00:24:39;;;;;;;8.30;3.53;;;22.30;78.20;;;;;;5032892;28;20075;-61
2023/06/08 00:27:05;;;;;;;9.20;3.60;;;22.30;78.00;;;;;;5032745;28;20046;-62
2023/06/08 00:29:35;;;;;;;9.75;4.05;;;22.30;75.10;;;;;;5042765;28;20049;-61
2023/06/08 00:32:01;;;;;;;7.28;3.60;;;22.30;73.80;;;;;;5050541;28;20040;-61
2023/06/08 00:34:27;;;;;;;10.25;4.10;;;22.00;78.00;;;;;;5049260;28;20052;-62
2023/06/08 00:36:53;;;;;;;7.95;3.88;;;22.20;78.50;;;;;;5042601;28;20041;-61
2023/06/08 00:39:18;;;;;;;8.90;4.35;;;22.20;74.80;;;;;;5039979;28;20187;-62
2023/06/08 00:41:44;;;;;;;8.93;4.40;;;21.90;74.80;;;;;;5047953;28;20048;-63
2023/06/08 00:44:10;;;;;;;10.25;4.68;;;22.40;75.20;;;;;;5044035;28;20037;-65
2023/06/08 00:46:36;;;;;;;9.60;3.90;;;22.20;78.10;;;;;;5042240;28;20056;-73
2023/06/08 00:49:03;;;;;;;12.30;4.18;;;22.30;78.00;;;;;;5039090;28;20068;-73
2023/06/08 00:51:35;;;;;;;7.78;4.28;;;22.30;78.30;;;;;;5045909;28;20083;-73
2023/06/08 00:54:01;;;;;;;7.63;4.07;;;22.20;78.20;;;;;;5016839;28;20080;-70
2023/06/08 00:56:27;;;;;;;9.65;4.05;;;22.30;78.20;;;;;;5046570;28;21657;-73
2023/06/08 00:58:56;;;;;;;8.82;3.92;;;22.20;78.00;;;;;;5032581;28;20041;-67
2023/06/08 01:01:25;;;;;;;8.88;4.45;;;22.30;75.20;;;;;;5045277;28;20052;-69
2023/06/08 01:03:51;;;;;;;7.85;4.15;;;22.60;75.30;;;;;;5035863;28;20044;-74
2023/06/08 01:06:20;;;;;;;7.30;4.03;;;22.20;75.00;;;;;;5030894;28;20491;-69
2023/06/08 01:09:20;;;;;;;7.80;4.30;;;22.30;78.00;;;;;;5038004;28;20048;-60
2023/06/08 01:11:55;;;;;;;9.93;4.38;;;22.10;77.80;;;;;;5048783;28;20498;-73
2023/06/08 01:14:48;;;;;;;7.03;4.18;;;22.30;74.00;;;;;;5033651;28;20075;-75
2023/06/08 01:17:17;;;;;;;9.02;4.40;;;22.20;77.90;;;;;;5036764;28;20041;-65
2023/06/08 01:20:11;;;;;;;8.27;4.30;;;22.30;78.20;;;;;;5032507;28;20568;-74
2023/06/08 01:22:37;;;;;;;7.53;4.25;;;21.90;74.10;;;;;;5039411;28;20052;-71
2023/06/08 01:25:02;;;;;;;9.27;4.18;;;22.30;78.20;;;;;;5047578;28;20561;-63
2023/06/08 01:27:36;;;;;;;9.27;3.97;;;22.30;78.10;;;;;;5042229;28;20056;-69
2023/06/08 01:30:04;;;;;;;7.05;3.80;;;22.40;75.40;;;;;;5033186;28;20524;-68
2023/06/08 01:32:30;;;;;;;8.23;3.95;;;22.20;75.20;;;;;;5046757;28;20037;-65
2023/06/08 01:34:56;;;;;;;11.10;4.38;;;22.40;77.20;;;;;;5047058;28;20412;-75
2023/06/08 01:37:33;;;;;;;11.38;4.28;;;22.20;74.90;;;;;;5033580;28;20111;-68
2023/06/08 01:40:06;;;;;;;7.82;3.92;;;22.20;78.60;;;;;;5023906;28;20083;-73
2023/06/08 01:42:32;;;;;;;9.57;4.50;;;22.10;78.30;;;;;;5042229;28;20041;-67
2023/06/08 01:45:16;;;;;;;9.23;4.15;;;22.10;78.30;;;;;;5030744;28;20399;-64
2023/06/08 01:48:02;;;;;;;9.95;4.00;;;22.20;78.40;;;;;;5042528;28;20057;-60
2023/06/08 01:50:28;;;;;;;9.80;4.28;;;;;;;;;;5039540;28;20443;-71
2023/06/08 01:52:55;;;;;;;9.23;4.30;;;22.10;78.40;;;;;;5034162;28;20515;-62
2023/06/08 01:55:21;;;;;;;8.40;3.90;;;22.20;78.60;;;;;;5046758;28;20394;-67
2023/06/08 01:57:47;;;;;;;9.45;4.28;;;22.20;78.60;;;;;;5048516;28;20045;-76
2023/06/08 02:00:14;;;;;;;8.15;4.22;;;21.90;75.30;;;;;;5038880;28;20411;-77
2023/06/08 02:02:40;;;;;;;7.40;3.83;;;22.00;78.90;;;;;;5040665;28;20377;-68
2023/06/08 02:05:08;;;;;;;8.52;4.00;;;21.80;78.90;;;;;;5041323;28;20037;-68
2023/06/08 02:07:35;;;;;;;7.90;3.80;;;22.20;78.90;;;;;;5054991;28;20106;-70
2023/06/08 02:10:01;;;;;;;8.20;3.88;;;22.30;78.90;;;;;;5054095;28;20048;-72
2023/06/08 02:12:27;;;;;;;8.45;3.85;;;22.10;76.30;;;;;;5052884;28;20045;-70
2023/06/08 02:14:53;;;;;;;7.85;3.72;;;22.00;78.90;;;;;;5043433;28;20472;-66
2023/06/08 02:17:25;;;;;;;9.32;4.15;;;22.20;78.90;;;;;;5042969;28;20044;-63
2023/06/08 02:19:51;;;;;;;;;;;22.20;76.10;;;;;;5045309;28;20047;-77
2023/06/08 02:22:17;;;;;;;8.88;3.70;;;22.30;76.50;;;;;;5042507;28;20374;-73
2023/06/08 02:24:43;;;;;;;8.18;3.53;;;22.30;79.20;;;;;;5054285;28;20050;-78
2023/06/08 02:27:08;;;;;;;7.32;3.92;;;21.90;79.00;;;;;;5051522;28;20053;-70
2023/06/08 02:29:35;;;;;;;10.32;4.50;;;;;;;;;;5046895;28;20090;-67
2023/06/08 02:32:01;;;;;;;8.50;4.00;;;22.10;79.00;;;;;;5038328;28;20045;-64
2023/06/08 02:34:27;;;;;;;7.80;4.20;;;22.10;79.00;;;;;;5045596;28;20501;-64
2023/06/08 02:36:53;;;;;;;10.65;3.85;;;;;;;;;;5054144;28;20049;-69
2023/06/08 02:39:19;;;;;;;7.88;3.90;;;22.10;79.00;;;;;;5050782;28;20041;-77
2023/06/08 02:41:45;;;;;;;7.68;3.65;;;22.00;78.90;;;;;;5041523;28;20052;-67
2023/06/08 02:44:10;;;;;;;7.10;3.92;;;21.80;78.80;;;;;;5038800;28;20077;-74
2023/06/08 02:46:36;;;;;;;10.73;4.13;;;22.00;78.50;;;;;;5054230;28;20029;-72
2023/06/08 02:49:02;;;;;;;11.10;4.35;;;22.20;79.00;;;;;;5053805;28;20080;-73
2023/06/08 02:51:28;;;;;;;9.70;4.13;;;22.00;79.00;;;;;;5043841;28;20056;-74
2023/06/08 02:53:54;;;;;;;9.02;4.18;;;21.90;76.70;;;;;;5035850;28;20049;-77
2023/06/08 02:56:21;;;;;;;10.18;3.97;;;22.00;78.90;;;;;;5042092;28;20094;-78
2023/06/08 02:58:47;;;;;;;8.50;4.38;;;21.80;78.90;;;;;;5054047;28;20048;-70
2023/06/08 03:01:15;;;;;;;6.57;3.97;;;22.00;78.90;;;;;;5052571;28;20072;-72
2023/06/08 03:03:42;;;;;;;9.35;4.05;;;22.00;78.90;;;;;;5050925;28;20045;-67
2023/06/08 03:06:09;;;;;;;9.30;4.13;;;22.00;79.00;;;;;;5034356;28;20073;-76
2023/06/08 03:08:38;;;;;;;8.82;3.92;;;22.00;75.90;;;;;;5047386;28;20550;-63
2023/06/08 03:11:05;;;;;;;8.05;4.22;;;;;;;;;;5045126;28;20184;-68
2023/06/08 03:13:30;;;;;;;10.55;4.20;;;22.10;79.10;;;;;;5050731;28;20037;-70
2023/06/08 03:15:56;;;;;;;8.77;4.20;;;22.00;79.30;;;;;;5050671;28;20056;-67
2023/06/08 03:18:22;;;;;;;8.23;4.43;;;22.00;79.30;;;;;;5053231;28;20052;-69
2023/06/08 03:20:51;;;;;;;8.15;3.85;;;22.10;79.10;;;;;;5052376;28;20045;-75
2023/06/08 03:23:20;;;;;;;8.73;4.28;;;21.80;78.90;;;;;;5052108;28;20120;-71
2023/06/08 03:25:49;;;;;;;7.60;4.28;;;21.80;78.90;;;;;;5043461;28;20518;-71
2023/06/08 03:28:16;;;;;;;6.43;3.58;;;22.00;75.70;;;;;;5049882;28;20083;-69
2023/06/08 03:30:41;;;;;;;8.65;3.75;;;22.00;78.90;;;;;;5053176;28;20455;-67
2023/06/08 03:33:07;;;;;;;7.70;3.78;;;21.90;78.90;;;;;;5052533;28;20123;-65
2023/06/08 03:35:33;;;;;;;9.85;4.20;;;22.00;78.90;;;;;;5048970;28;20057;-72
2023/06/08 03:37:59;;;;;;;9.10;4.10;;;22.10;78.90;;;;;;5046703;28;20052;-71
2023/06/08 03:40:25;;;;;;;8.88;4.32;;;22.20;78.90;;;;;;5049112;28;20059;-61
2023/06/08 03:42:51;;;;;;;8.63;3.95;;;;;;;;;;5040895;28;20127;-71
2023/06/08 03:45:17;;;;;;;18.27;4.32;;;22.20;79.00;;;;;;5051509;28;20047;-67
2023/06/08 03:47:43;;;;;;;8.43;3.75;;;22.10;78.90;;;;;;5038614;28;20045;-64
2023/06/08 03:50:11;;;;;;;9.25;4.00;;;22.30;79.40;;;;;;5039857;28;20123;-72
2023/06/08 03:52:40;;;;;;;10.13;4.03;;;21.90;79.00;;;;;;5040269;28;20045;-70
2023/06/08 03:55:07;;;;;;;7.95;4.05;;;22.00;79.00;;;;;;5034575;28;20041;-70
2023/06/08 03:57:33;;;;;;;8.60;4.20;;;22.00;79.00;;;;;;5033756;28;20128;-64
2023/06/08 03:59:58;;;;;;;8.38;4.18;;;22.20;79.00;;;;;;5047166;28;20120;-72
2023/06/08 04:02:24;;;;;;;7.28;3.78;;;21.80;78.90;;;;;;5053587;28;20111;-70
2023/06/08 04:04:50;;;;;;;9.63;4.10;;;22.20;79.00;;;;;;5042357;28;20045;-62
2023/06/08 04:07:16;;;;;;;10.40;3.83;;;22.20;79.00;;;;;;5040480;28;20049;-72
2023/06/08 04:09:42;;;;;;;12.32;4.32;;;22.00;79.00;;;;;;5052426;28;20083;-65
2023/06/08 04:12:08;;;;;;;8.82;3.88;;;21.90;78.90;;;;;;5051178;28;20491;-75
2023/06/08 04:14:34;;;;;;;9.23;4.32;;;22.10;79.10;;;;;;5051142;28;20037;-71
2023/06/08 04:17:00;;;;;;;9.18;4.22;;;22.00;79.00;;;;;;5044793;28;20048;-67
2023/06/08 04:19:26;;;;;;;8.30;4.15;;;22.10;79.00;;;;;;5052600;28;20068;-77
2023/06/08 04:21:56;;;;;;;8.95;4.32;;;22.30;79.20;;;;;;5041877;28;20048;-74
2023/06/08 04:24:28;;;;;;;9.88;4.22;;;22.20;79.00;;;;;;5040167;28;20576;-72
2023/06/08 04:26:55;;;;;;;8.73;4.38;;;22.10;79.00;;;;;;5052376;28;20049;-64
2023/06/08 04:29:21;;;;;;;9.77;4.38;;;22.10;78.80;;;;;;5049261;28;20041;-70
2023/06/08 04:31:47;;;;;;;10.30;4.35;;;22.10;78.90;;;;;;5050652;28;20094;-69
2023/06/08 04:34:13;;;;;;;7.40;3.50;;;22.00;78.90;;;;;;5042304;28;20054;-73
2023/06/08 04:36:42;;;;;;;7.70;3.42;;;22.00;78.80;;;;;;5045561;28;20040;-67
2023/06/08 04:39:08;;;;;;;7.85;3.70;;;21.90;78.90;;;;;;5045129;28;20049;-68
2023/06/08 04:41:35;;;;;;;5.93;2.97;;;22.10;79.10;;;;;;5049408;28;20041;-72
2023/06/08 04:44:05;;;;;;;8.00;3.30;;;22.10;78.90;;;;;;5042429;28;20046;-67
2023/06/08 04:46:33;;;;;;;9.25;4.10;;;22.10;78.90;;;;;;5047327;28;20423;-66
2023/06/08 04:48:59;;;;;;;8.40;4.10;;;22.20;78.80;;;;;;5037223;28;20049;-70
2023/06/08 04:51:29;;;;;;;9.82;3.63;;;22.30;79.00;;;;;;5052202;28;20445;-68
2023/06/08 04:54:04;;;;;;;7.50;3.63;;;22.30;78.90;;;;;;5047622;28;20080;-64
2023/06/08 04:56:33;;;;;;;7.18;3.95;;;22.10;78.90;;;;;;5038106;28;20037;-64
2023/06/08 04:59:01;;;;;;;9.05;3.60;;;22.20;78.80;;;;;;5034432;28;20149;-61
2023/06/08 05:01:28;;;;;;;11.20;4.05;;;22.10;78.80;;;;;;5042425;28;20041;-72
2023/06/08 05:03:54;;;;;;;7.30;3.70;;;;;;;;;;5045133;28;20060;-72
2023/06/08 05:06:20;;;;;;;7.53;3.78;;;22.30;78.80;;;;;;5036659;28;20403;-74
2023/06/08 05:08:46;;;;;;;7.75;3.33;;;22.20;78.70;;;;;;5044882;28;20091;-67
2023/06/08 05:11:12;;;;;;;9.30;3.55;;;22.40;78.90;;;;;;5031383;28;20438;-78
2023/06/08 05:13:38;;;;;;;7.93;3.63;;;22.50;78.90;;;;;;5050912;28;20116;-69
2023/06/08 05:16:04;;;;;;;6.25;3.70;;;22.30;78.70;;;;;;5049600;28;20045;-72
2023/06/08 05:18:30;;;;;;;8.70;3.88;;;22.40;74.70;;;;;;5050775;28;20403;-67
2023/06/08 05:20:56;;;;;;;6.95;3.80;;;22.40;78.80;;;;;;5036020;28;20045;-63
2023/06/08 05:23:22;;;;;;;12.75;3.50;;;22.10;78.50;;;;;;5045827;28;20052;-75
2023/06/08 05:25:48;;;;;;;9.10;3.88;;;22.50;78.70;;;;;;5048380;28;20048;-62
2023/06/08 05:28:13;;;;;;;8.82;3.40;;;22.40;78.60;;;;;;5033784;28;20052;-77
2023/06/08 05:30:39;;;;;;;8.90;3.80;;;22.50;75.60;;;;;;5033222;28;20044;-84
2023/06/08 05:33:05;;;;;;;8.77;3.90;;;;;;;;;;5040969;28;20092;-79
2023/06/08 05:35:31;;;;;;;10.00;3.78;;;22.60;78.80;;;;;;5051420;28;20128;-66
2023/06/08 05:37:57;;;;;;;6.95;3.42;;;22.60;78.80;;;;;;5035731;28;20121;-62
2023/06/08 05:40:24;;;;;;;9.02;3.50;;;22.20;75.40;;;;;;5036198;28;20172;-64
2023/06/08 05:42:50;;;;;;;8.55;3.78;;;22.60;78.70;;;;;;5052404;28;20068;-61
2023/06/08 05:45:16;;;;;;;8.88;3.60;;;22.80;76.90;;;;;;5046406;28;20136;-87
2023/06/08 05:47:42;;;;;;;6.40;3.20;;;22.90;78.40;;;;;;5045532;28;20135;-66
2023/06/08 05:50:08;;;;;;;8.23;3.35;;;23.00;78.20;;;;;;5039877;28;20048;-64
2023/06/08 05:52:34;;;;;;;7.93;3.28;;;23.20;78.20;;;;;;5053356;28;20048;-63
2023/06/08 05:55:00;;;;;;;8.80;3.58;;;23.10;77.80;;;;;;5055648;28;20044;-61
2023/06/08 05:57:26;;;;;;;7.38;3.40;;;23.40;73.60;;;;;;5047927;28;20403;-64
2023/06/08 05:59:52;;;;;;;7.15;3.13;;;23.60;77.50;;;;;;5048569;28;20037;-63
2023/06/08 06:02:18;;;;;;;6.75;2.97;;;23.80;77.40;;;;;;5052386;28;20041;-63
2023/06/08 06:04:44;;;;;;;6.88;3.38;;;23.90;77.30;;;;;;5055782;28;20116;-60
2023/06/08 06:07:10;;;;;;;8.90;3.53;;;23.80;77.10;;;;;;5053110;28;20056;-62
2023/06/08 06:09:36;;;;;;;7.63;3.53;;;23.60;76.80;;;;;;5053485;28;20453;-62
2023/06/08 06:12:02;;;;;;;7.65;3.17;;;23.90;74.20;;;;;;5050791;28;20041;-62
2023/06/08 06:14:35;;;;;;;6.43;3.20;;;24.10;77.00;;;;;;5035829;28;20046;-65
2023/06/08 06:17:01;;;;;;;7.93;3.25;;;23.90;76.80;;;;;;5053190;28;20049;-61
2023/06/08 06:19:29;;;;;;;7.25;3.22;;;24.00;74.00;;;;;;5051231;28;20051;-65
2023/06/08 06:21:55;;;;;;;9.52;3.67;;;;;;;;;;5054736;28;20068;-64
2023/06/08 06:24:20;;;;;;;5.60;3.30;;;24.20;76.80;;;;;;5043609;28;20033;-61
2023/06/08 06:26:46;;;;;;;8.00;3.17;;;24.00;76.60;;;;;;5035404;28;20056;-61
2023/06/08 06:29:12;;;;;;;6.63;3.60;;;24.20;76.30;;;;;;5046683;28;20075;-64
2023/06/08 06:31:38;;;;;;;8.13;3.30;;;24.20;76.30;;;;;;5042862;28;20057;-79
2023/06/08 06:34:04;;;;;;;7.25;3.53;;;24.40;76.30;;;;;;5037812;28;20052;-81
2023/06/08 06:36:30;;;;;;;7.40;3.10;;;24.50;72.70;;;;;;5052228;28;20059;-88
2023/06/08 06:38:56;;;;;;;5.93;3.20;;;24.50;75.90;;;;;;5049358;28;20033;-90
2023/06/08 06:41:21;;;;;;;5.93;3.28;;;24.70;75.90;;;;;;5039658;28;20045;-79
2023/06/08 06:43:47;;;;;;;6.68;3.20;;;24.70;76.10;;;;;;5034710;28;20041;-87
2023/06/08 06:46:19;;;;;;;7.28;3.35;;;24.80;73.00;;;;;;5035352;28;20060;-87
2023/06/08 06:48:45;;;;;;;8.13;3.10;;;24.80;75.50;;;;;;5040655;28;20080;-86
2023/06/08 06:51:11;;;;;;;6.90;3.13;;;24.80;72.60;;;;;;5054610;28;20373;-89
2023/06/08 06:53:37;;;;;;;7.90;3.33;;;25.00;72.90;;;;;;5048725;28;20040;-61
2023/06/08 06:56:03;;;;;;;8.00;3.30;;;24.90;72.40;;;;;;5033459;28;20041;-61
2023/06/08 06:58:29;;;;;;;7.10;3.33;;;25.10;75.50;;;;;;5044434;28;20124;-88
2023/06/08 07:00:55;;;;;;;8.32;3.03;;;24.80;75.30;;;;;;5050388;28;20056;-80
2023/06/08 07:03:21;;;;;;;6.88;3.15;;;25.10;72.50;;;;;;5054334;28;20049;-80
2023/06/08 07:05:49;;;;;;;7.82;3.65;;;24.90;72.30;;;;;;5053542;28;20103;-90
2023/06/08 07:08:15;;;;;;;6.80;2.88;;;25.00;72.20;;;;;;5054855;28;20123;-89
2023/06/08 07:10:41;;;;;;;5.30;3.10;;;25.30;72.30;;;;;;5037605;28;20072;-64
2023/06/08 07:13:06;;;;;;;6.60;3.00;;;24.90;71.90;;;;;;5034379;28;20049;-62
2023/06/08 07:15:32;;;;;;;7.65;3.70;;;25.30;72.10;;;;;;5034970;28;20044;-77
2023/06/08 07:17:58;;;;;;;6.68;3.47;;;25.30;72.60;;;;;;5034291;28;20045;-91
2023/06/08 07:20:23;;;;;;;8.55;3.30;;;25.60;74.90;;;;;;5034604;28;20041;-90
2023/06/08 07:22:49;;;;;;;7.82;3.13;;;25.60;72.00;;;;;;5045719;28;20041;-84
2023/06/08 07:25:15;;;;;;;6.82;3.08;;;25.50;71.50;;;;;;5037595;28;20120;-61
2023/06/08 07:27:41;;;;;;;7.53;3.42;;;25.60;74.80;;;;;;5045603;28;20037;-88
2023/06/08 07:30:08;;;;;;;6.85;3.30;;;25.50;71.30;;;;;;5050230;28;20123;-89
2023/06/08 07:32:33;;;;;;;6.60;3.30;;;25.70;71.20;;;;;;5037476;28;20042;-61
2023/06/08 07:35:01;;;;;;;6.05;3.10;;;25.70;71.50;;;;;;5039155;28;20060;-87
2023/06/08 07:37:27;;;;;;;6.97;3.05;;;25.90;71.60;;;;;;5043123;28;20495;-81
2023/06/08 07:39:53;;;;;;;6.25;3.30;;;25.80;71.40;;;;;;5045064;28;20053;-83
2023/06/08 07:42:19;;;;;;;9.40;3.97;;;26.10;71.60;;;;;;5047610;28;20052;-72
2023/06/08 07:44:44;;;;;;;5.97;3.53;;;26.00;71.50;;;;;;5051764;28;20037;-89
2023/06/08 07:47:10;;;;;;;7.05;3.33;;;26.10;71.50;;;;;;5052374;28;20045;-83
2023/06/08 07:49:36;;;;;;;7.60;3.40;;;25.90;71.80;;;;;;5047810;28;20048;-87
2023/06/08 07:52:02;;;;;;;8.68;3.75;;;25.70;71.10;;;;;;5034831;28;20124;-87
2023/06/08 07:54:28;;;;;;;9.60;3.65;;;26.20;71.40;;;;;;5034369;28;20114;-80
2023/06/08 07:56:53;;;;;;;5.80;3.28;;;26.10;71.50;;;;;;5038362;28;20041;-80
2023/06/08 07:59:19;;;;;;;8.18;3.90;;;26.00;71.10;;;;;;5035996;28;20101;-90
2023/06/08 08:01:45;;;;;;;7.93;3.75;;;26.00;71.10;;;;;;5038366;28;20044;-79
2023/06/08 08:04:11;;;;;;;6.82;3.28;;;25.90;70.90;;;;;;5041233;28;20074;-80
2023/06/08 08:06:37;;;;;;;10.43;3.95;;;26.20;71.00;;;;;;5053575;28;20102;-76
2023/06/08 08:09:03;;;;;;;9.00;4.25;;;26.40;71.30;;;;;;5042178;28;20044;-78
2023/06/08 08:11:29;;;;;;;11.15;4.80;;;26.10;71.10;;;;;;5038249;28;20502;-73
2023/06/08 08:13:58;;;;;;;10.90;4.45;;;26.20;70.90;;;;;;5043823;28;20040;-70
2023/06/08 08:16:23;;;;;;;11.57;4.60;;;26.30;71.10;;;;;;5051854;28;20040;-77
2023/06/08 08:18:49;;;;;;;12.35;4.78;;;26.20;71.10;;;;;;5051539;28;20048;-79
2023/06/08 08:21:15;;;;;;;13.50;5.53;;;26.00;71.10;;;;;;5049452;28;20041;-60
2023/06/08 08:23:41;;;;;;;11.98;5.72;;;26.20;71.10;;;;;;5043698;28;20041;-60
2023/06/08 08:26:07;;;;;;;13.15;5.18;;;26.20;71.30;;;;;;5049357;28;20530;-60
2023/06/08 08:28:33;;;;;;;14.90;5.93;;;26.20;71.30;;;;;;5044035;28;20082;-65
2023/06/08 08:30:59;;;;;;;14.15;5.38;;;26.10;71.50;;;;;;5049431;28;20060;-72
2023/06/08 08:33:26;;;;;;;13.20;5.80;;;25.90;71.00;;;;;;5048994;28;20045;-60
2023/06/08 08:35:52;;;;;;;10.55;4.85;;;26.20;71.50;;;;;;5036433;28;20045;-60
2023/06/08 08:38:18;;;;;;;12.45;5.30;;;26.10;71.00;;;;;;5034357;28;20053;-61
2023/06/08 08:40:44;;;;;;;13.52;5.68;;;26.40;71.30;;;;;;5033275;28;20045;-61
2023/06/08 08:43:16;;;;;;;14.63;5.35;;;26.20;71.10;;;;;;5051251;28;20044;-61
2023/06/08 08:45:42;;;;;;;14.52;6.32;;;26.10;70.00;;;;;;5048136;28;20044;-64
2023/06/08 08:48:08;;;;;;;15.93;5.35;;;26.10;71.60;;;;;;5049239;28;20040;-62
2023/06/08 08:50:34;;;;;;;14.32;5.70;;;26.30;71.60;;;;;;5028966;28;20072;-61
2023/06/08 08:53:00;;;;;;;11.02;5.05;;;26.00;71.30;;;;;;5020837;28;20503;-63
2023/06/08 08:55:33;;;;;;;13.38;5.30;;;26.10;72.40;;;;;;5033859;28;20383;-64
2023/06/08 08:58:03;;;;;;;10.30;5.28;;;25.90;70.60;;;;;;5061070;28;20046;-65
2023/06/08 09:00:32;;;;;;;10.77;5.38;;;25.80;71.80;;;;;;5048305;28;20391;-67
2023/06/08 09:02:58;;;;;;;13.60;4.70;;;26.30;72.10;;;;;;5039368;28;20048;-74
2023/06/08 09:05:25;;;;;;;11.50;4.88;;;25.70;71.40;;;;;;5038761;28;20057;-72
2023/06/08 09:07:55;;;;;;;12.07;5.07;;;25.80;70.90;;;;;;5040687;28;20361;-73
2023/06/08 09:10:25;;;;;;;12.25;4.90;;;26.10;71.70;;;;;;5043333;28;20398;-73
2023/06/08 09:12:52;;;;;;;16.17;5.18;;;26.00;70.00;;;;;;5051240;28;20040;-70
2023/06/08 09:15:26;;;;;;;13.52;5.00;;;26.00;71.40;;;;;;5051837;28;20132;-73
2023/06/08 09:17:53;;;;;;;17.85;5.60;;;25.90;71.70;;;;;;5031482;28;20049;-72
2023/06/08 09:20:26;;;;;;;17.80;4.82;;;25.70;71.40;;;;;;5036585;28;20052;-75
2023/06/08 09:22:52;;;;;;;14.75;4.57;;;25.90;71.80;;;;;;5042944;28;20036;-75
2023/06/08 09:25:21;;;;;;;15.90;5.20;;;26.00;71.50;;;;;;5055108;28;20537;-74
2023/06/08 09:27:47;;;;;;;13.52;4.75;;;26.10;71.50;;;;;;5037257;28;20132;-62
2023/06/08 09:30:23;;;;;;;14.07;5.25;;;26.00;71.40;;;;;;5051659;28;20052;-62
2023/06/08 09:32:49;;;;;;;10.27;4.47;;;26.20;71.70;;;;;;5037968;28;20084;-72
2023/06/08 09:35:21;;;;;;;10.88;4.65;;;26.10;71.70;;;;;;5047537;28;20143;-70
2023/06/08 09:37:52;;;;;;;;;;;25.90;71.70;;;;;;5035304;28;20107;-73
2023/06/08 09:40:19;;;;;;;10.57;4.30;;;25.80;71.20;;;;;;5034065;28;19921;-68
2023/06/08 09:42:53;;;;;;;11.90;4.80;;;25.90;71.50;;;;;;5039828;28;20401;-73
2023/06/08 09:45:22;;;;;;;12.82;4.88;;;25.80;71.90;;;;;;5042268;28;20049;-76
2023/06/08 09:47:48;;;;;;;12.15;4.72;;;25.90;70.20;;;;;;5036082;28;20049;-73
2023/06/08 09:50:14;;;;;;;10.95;4.53;;;25.80;71.60;;;;;;5042210;28;20171;-72
2023/06/08 09:52:41;;;;;;;13.00;4.30;;;25.70;71.40;;;;;;5037085;28;20384;-75
2023/06/08 09:55:07;;;;;;;10.43;4.57;;;25.70;71.60;;;;;;5041363;28;20376;-73
2023/06/08 09:57:36;;;;;;;15.15;4.82;;;26.00;71.40;;;;;;5041959;28;20651;-75
2023/06/08 10:00:17;;;;;;;10.35;4.72;;;25.90;71.40;;;;;;5040692;28;20045;-68
2023/06/08 10:02:55;;;;;;;8.68;4.60;;;25.80;71.50;;;;;;5050354;28;20421;-80
2023/06/08 10:05:22;;;;;;;9.70;4.88;;;26.00;71.00;;;;;;5039555;28;20054;-68
2023/06/08 10:07:48;;;;;;;9.77;4.85;;;25.90;71.90;;;;;;5035883;28;20041;-74
2023/06/08 10:10:18;;;;;;;11.82;5.03;;;25.60;71.50;;;;;;5035429;28;20114;-72
2023/06/08 10:12:43;;;;;;;13.77;4.55;;;25.80;71.90;;;;;;5034831;28;20046;-73
2023/06/08 10:15:09;;;;;;;11.20;4.38;;;25.80;71.60;;;;;;5053322;28;20041;-71
2023/06/08 10:17:35;;;;;;;9.40;4.85;;;25.80;71.40;;;;;;5035515;28;20458;-70
2023/06/08 10:20:01;;;;;;;11.80;4.65;;;25.70;71.70;;;;;;5031662;28;20049;-72
2023/06/08 10:22:27;;;;;;;9.95;4.30;;;25.80;71.50;;;;;;5035578;28;20052;-79
2023/06/08 10:24:53;;;;;;;9.00;4.28;;;25.80;71.70;;;;;;5050587;28;20080;-70
2023/06/08 10:27:33;;;;;;;11.13;4.38;;;26.00;71.40;;;;;;5036896;28;20041;-72
2023/06/08 10:30:00;;;;;;;15.57;4.97;;;25.90;70.90;;;;;;5036819;28;20045;-73
2023/06/08 10:32:36;;;;;;;10.85;4.20;;;25.70;72.00;;;;;;5047562;28;20407;-68
2023/06/08 10:35:06;;;;;;;10.00;4.30;;;25.80;70.60;;;;;;5045025;28;20053;-77
2023/06/08 10:37:33;;;;;;;13.43;4.90;;;25.80;71.50;;;;;;5041858;28;20053;-68
2023/06/08 10:40:00;;;;;;;16.85;4.82;;;25.50;71.70;;;;;;5039425;28;20040;-71
2023/06/08 10:42:26;;;;;;;17.67;5.03;;;25.60;72.00;;;;;;5034659;28;20037;-75
2023/06/08 10:44:58;;;;;;;10.15;4.55;;;25.70;71.80;;;;;;5034529;28;20034;-77
2023/06/08 10:47:24;;;;;;;;;;;25.70;72.30;;;;;;5042954;28;20076;-77
2023/06/08 10:50:05;;;;;;;9.00;4.13;;;25.60;72.40;;;;;;5033715;28;19998;-78
2023/06/08 10:52:44;;;;;;;10.10;4.07;;;25.80;72.80;;;;;;5041185;28;20380;-71
2023/06/08 10:55:11;;;;;;;9.95;4.35;;;25.70;72.80;;;;;;5037934;28;20049;-76
2023/06/08 10:57:44;;;;;;;10.32;4.22;;;25.80;72.10;;;;;;5054555;28;20098;-73
2023/06/08 11:00:26;;;;;;;;;;;25.50;72.30;;;;;;5050254;28;20068;-75
2023/06/08 11:02:52;;;;;;;9.32;4.22;;;25.70;71.60;;;;;;5045646;28;19943;-61
2023/06/08 11:05:18;;;;;;;9.32;4.20;;;25.60;72.30;;;;;;5053435;28;20080;-61
2023/06/08 11:07:43;;;;;;;9.95;4.38;;;25.80;72.20;;;;;;5050499;28;20048;-64
2023/06/08 11:10:10;;;;;;;8.98;4.22;;;25.70;72.20;;;;;;5044013;28;20041;-77
2023/06/08 11:12:36;;;;;;;8.95;4.43;;;25.80;72.40;;;;;;5048264;28;20403;-74
2023/06/08 11:15:02;;;;;;;10.40;4.15;;;25.80;72.10;;;;;;5038673;28;20048;-76
2023/06/08 11:17:27;;;;;;;11.32;4.90;;;25.60;72.20;;;;;;5051939;28;20045;-73
2023/06/08 11:19:53;;;;;;;11.15;4.25;;;25.60;72.40;;;;;;5036514;28;20049;-79
2023/06/08 11:22:21;;;;;;;8.43;4.55;;;25.60;72.50;;;;;;5051534;28;20132;-79
2023/06/08 11:24:47;;;;;;;8.38;3.70;;;25.70;72.80;;;;;;5044142;28;20056;-67
2023/06/08 11:27:17;;;;;;;9.07;4.30;;;25.60;72.40;;;;;;5040619;28;20427;-80
2023/06/08 11:29:45;;;;;;;10.43;4.43;;;25.80;73.00;;;;;;5039735;28;20072;-61
2023/06/08 11:32:12;;;;;;;8.88;4.72;;;25.70;72.90;;;;;;5042461;28;20127;-63
2023/06/08 11:34:41;;;;;;;10.80;4.63;;;25.60;72.40;;;;;;5042617;28;20464;-64
2023/06/08 11:37:07;;;;;;;10.90;4.38;;;25.90;73.00;;;;;;5049408;28;20041;-62
2023/06/08 11:39:33;;;;;;;10.90;4.35;;;25.80;72.80;;;;;;5034858;28;20033;-61
2023/06/08 11:41:59;;;;;;;12.57;4.10;;;25.90;72.70;;;;;;5063581;28;20037;-70
2023/06/08 11:44:26;;;;;;;15.20;5.05;;;25.70;72.90;;;;;;5034538;28;20088;-65
2023/06/08 11:46:52;;;;;;;12.70;4.80;;;25.60;72.50;;;;;;5034949;28;20041;-74
2023/06/08 11:49:18;;;;;;;12.73;4.20;;;25.60;72.70;;;;;;5032386;28;20045;-83
2023/06/08 11:51:49;;;;;;;10.45;4.30;;;25.70;72.60;;;;;;5033315;28;20100;-74
2023/06/08 11:54:15;;;;;;;13.50;4.40;;;25.80;73.00;;;;;;5040492;28;20049;-80
2023/06/08 11:56:45;;;;;;;10.63;4.00;;;25.80;72.90;;;;;;5032192;28;20045;-73
2023/06/08 11:59:15;;;;;;;17.05;4.38;;;25.80;72.80;;;;;;5045122;28;20103;-72
2023/06/08 12:01:59;;;;;;;9.65;4.07;;;25.80;71.50;;;;;;5071221;28;20091;-77
2023/06/08 12:04:34;;;;;;;9.80;4.13;;;25.70;73.30;;;;;;5049252;28;20066;-76
2023/06/08 12:07:14;;;;;;;9.13;3.85;;;25.80;73.00;;;;;;5039150;28;20048;-81
2023/06/08 12:09:48;;;;;;;10.95;4.10;;;25.90;73.40;;;;;;5041020;28;20371;-75
2023/06/08 12:12:14;;;;;;;8.05;3.65;;;26.00;73.20;;;;;;5041824;28;20045;-79
2023/06/08 12:14:46;;;;;;;9.13;4.45;;;25.80;72.80;;;;;;5045824;28;20039;-73
2023/06/08 12:17:15;;;;;;;15.68;4.50;;;25.70;73.00;;;;;;5041390;28;20104;-67
2023/06/08 12:19:45;;;;;;;8.88;4.07;;;25.80;72.70;;;;;;5032967;28;20187;-85
2023/06/08 12:22:15;;;;;;;7.53;3.22;;;25.70;72.60;;;;;;5033418;28;20432;-81
2023/06/08 12:24:40;;;;;;;9.18;4.25;;;25.80;72.80;;;;;;5021144;28;20445;-78
2023/06/08 12:27:06;;;;;;;8.50;3.58;;;26.00;72.80;;;;;;5049377;28;20087;-80
2023/06/08 12:29:33;;;;;;;7.45;3.90;;;25.70;72.80;;;;;;5038749;28;20052;-75
2023/06/08 12:31:59;;;;;;;7.90;3.65;;;25.90;73.10;;;;;;5032648;28;20119;-74
2023/06/08 12:34:26;;;;;;;8.43;3.50;;;26.00;73.00;;;;;;5029898;28;20111;-73
2023/06/08 12:36:52;;;;;;;8.43;4.18;;;25.50;72.50;;;;;;5014543;28;20507;-81
2023/06/08 12:39:18;;;;;;;8.35;3.70;;;25.90;76.40;;;;;;5016727;28;20088;-84
2023/06/08 12:41:44;;;;;;;8.57;3.40;;;25.50;72.70;;;;;;5015239;28;20084;-79
2023/06/08 12:44:10;;;;;;;6.38;3.40;;;25.60;72.70;;;;;;5031324;28;20071;-77
2023/06/08 12:46:36;;;;;;;6.30;3.30;;;25.70;72.80;;;;;;5043119;28;20399;-77
2023/06/08 12:49:02;;;;;;;7.53;3.50;;;25.80;73.00;;;;;;5033848;28;20115;-83